Progress Software Current Ratio 2010-2024 | PRGS

Progress Software current ratio from 2010 to 2024. Current ratio can be defined as a liquidity ratio that measures a company's ability to pay short-term obligations.
Progress Software Current Ratio Historical Data
Date Current Assets Current Liabilities Current Ratio
2024-02-29 $0.30B $0.31B 0.95
2023-11-30 $0.33B $0.35B 0.94
2023-08-31 $0.30B $0.33B 0.93
2023-05-31 $0.28B $0.32B 0.87
2023-02-28 $0.29B $0.34B 0.87
2022-11-30 $0.43B $0.32B 1.34
2022-08-31 $0.36B $0.28B 1.30
2022-05-31 $0.36B $0.28B 1.25
2022-02-28 $0.34B $0.28B 1.21
2021-11-30 $0.34B $0.32B 1.05
2021-08-31 $0.51B $0.27B 1.87
2021-05-31 $0.47B $0.27B 1.77
2021-02-28 $0.24B $0.27B 0.90
2020-11-30 $0.24B $0.26B 0.91
2020-08-31 $0.32B $0.23B 1.41
2020-05-31 $0.29B $0.23B 1.29
2020-02-29 $0.28B $0.23B 1.19
2019-11-30 $0.29B $0.24B 1.18
2019-08-31 $0.24B $0.22B 1.10
2019-05-31 $0.20B $0.20B 1.00
2019-02-28 $0.22B $0.18B 1.19
2018-11-30 $0.23B $0.19B 1.24
2018-08-31 $0.20B $0.19B 1.05
2018-05-31 $0.20B $0.20B 1.03
2018-02-28 $0.24B $0.20B 1.17
2017-11-30 $0.26B $0.21B 1.27
2017-08-31 $0.26B $0.21B 1.27
2017-05-31 $0.31B $0.21B 1.48
2017-02-28 $0.34B $0.22B 1.52
2016-11-30 $0.34B $0.20B 1.65
2016-08-31 $0.31B $0.20B 1.58
2016-05-31 $0.30B $0.20B 1.53
2016-02-29 $0.33B $0.20B 1.63
2015-11-30 $0.32B $0.20B 1.62
2015-08-31 $0.33B $0.20B 1.67
2015-05-31 $0.31B $0.20B 1.59
2015-02-28 $0.31B $0.19B 1.61
2014-11-30 $0.38B $0.15B 2.45
2014-08-31 $0.35B $0.15B 2.38
2014-05-31 $0.32B $0.15B 2.14
2014-02-28 $0.35B $0.16B 2.14
2013-11-30 $0.34B $0.17B 2.05
2013-08-31 $0.34B $0.16B 2.05
2013-05-31 $0.36B $0.17B 2.16
2013-02-28 $0.43B $0.18B 2.39
2012-11-30 $0.53B $0.24B 2.19
2012-08-31 $0.47B $0.22B 2.17
2012-05-31 $0.45B $0.23B 1.96
2012-02-29 $0.45B $0.25B 1.84
2011-11-30 $0.41B $0.23B 1.80
2011-08-31 $0.47B $0.23B 2.05
2011-05-31 $0.52B $0.23B 2.25
2011-02-28 $0.52B $0.24B 2.16
2010-11-30 $0.48B $0.24B 2.04
2010-08-31 $0.39B $0.21B 1.85
2010-05-31 $0.39B $0.22B 1.79
2010-02-28 $0.35B $0.25B 1.41
2009-11-30 $0.36B $0.23B 1.58
2009-08-31 $0.31B $0.22B 1.40
2009-05-31 $0.28B $0.23B 1.22
2009-02-28 $0.26B $0.23B 1.10
Sector Industry Market Cap Revenue
Computer and Technology Computer Software $2.257B $0.694B
Progress offers the leading platform for developing and deploying mission-critical business applications. Progress empowers enterprises and ISVs to build and deliver cognitive-first applications that harness big data to derive business insights and competitive advantage. Progress offers leading technologies for easily building powerful user interfaces across any type of device, a reliable, scalable and secure backend platform to deploy modern applications, leading data connectivity to all sources, and award-winning predictive analytics that brings the power of machine learning to any organization.
Stock Name Country Market Cap PE Ratio
Microsoft (MSFT) United States $3028.423B 36.85
Oracle (ORCL) United States $316.325B 25.75
Salesforce (CRM) United States $268.380B 44.77
Adobe (ADBE) United States $211.859B 35.42
Intuit (INTU) United States $176.646B 59.24
Synopsys (SNPS) United States $80.444B 58.03
Cadence Design Systems (CDNS) United States $76.706B 73.00
Dassault Systemes SA (DASTY) France $55.010B 36.05
Autodesk (ADSK) United States $46.615B 45.88
ANSYS (ANSS) United States $28.457B 48.01
MicroStrategy (MSTR) United States $22.714B 45.26
PTC (PTC) United States $21.572B 63.53
SS&C Technologies Holdings (SSNC) United States $15.076B 14.84
Manhattan Associates (MANH) United States $14.200B 75.37
Open Text (OTEX) Canada $9.837B 10.55
Descartes Systems Group (DSGX) Canada $8.016B 70.22
Trend Micro (TMICY) Japan $7.326B 65.00
Pegasystems (PEGA) United States $4.976B 68.16
CommVault Systems (CVLT) United States $4.254B 75.91
Blackbaud (BLKB) United States $4.234B 37.88
ACI Worldwide (ACIW) United States $3.555B 18.28
Verint Systems (VRNT) United States $1.893B 17.65
BlackBerry (BB) Canada $1.703B 0.00
Sapiens (SPNS) Israel $1.692B 23.98
PROS Holdings (PRO) United States $1.610B 0.00
Simulations Plus (SLP) United States $0.919B 67.65
Magic Software Enterprises (MGIC) Israel $0.577B 11.87
Rand Worldwide (RWWI) United States $0.574B 0.00
American Software (AMSWA) United States $0.349B 29.19
Canaan (CAN) China $0.222B 0.00
Rigetti Computing (RGTI) United States $0.189B 0.00
OptimizeRx (OPRX) United States $0.163B 0.00
Icad Inc (ICAD) United States $0.041B 0.00
Wetouch Technology (WETH) $0.032B 0.00
NetSol Technologies (NTWK) United States $0.031B 0.00
Hanryu Holdings (HRYU) South Korea $0.028B 0.00
Neonode (NEON) Sweden $0.026B 0.00
Smith Micro Software (SMSI) United States $0.020B 0.00
GSE Systems (GVP) United States $0.009B 0.00
SAP SE (SAP) Germany $0.000B 48.08